Cannon River (Minnesota), Welch (05355200)

StateMinnesotaLatestUnknown (2790 cfs)
RiverCannon RiverRatingObservedEstimated
Updated2024-06-14 23:00 (38 minutes ago)Flood - The river is flooding. Obstacles can be treacherous or deadly. The river should be avoided at this stage for casual trips and definitely for the inexperienced. Trips should be attempted only with protective gear and equipment.Flood(none)(none)
Discharge2790 cfs (median: 611 cfs)High - The river is high and potentially dangerous, especially for the young and / or inexperienced. Normal stream obstacles are sometimes difficult to navigate. Extended distances can be attempted, but canoe travel may not be advisable.High(none)(none)
Height6.52 feetGood - Conditions are ideal for a canoe or kayak. Boats typically will drag on fewer than one-quarter of riffles, if at all, and portages are unnecessary or rare. Normal float lengths can be attempted without a problem.Good(none)(none)
TrendFalling (rising over 24 hours)Low - River is low but can still be floated. Some riffles are okay but most come with significant dragging and might need a portage. Float lengths should be reduced to accommodate low flow, dragging, and portages.Low(none)(none)
USGSExternal icon USGS Site (External icon Duck Duck Go Maps)Poor - River is too low to float comfortably. Most or all riffles will drag or must be portaged and some obstacles (such as slick shelf rock) cause undue problems. Avoid the river at this stage for casual paddling trips.Poor(none)(none)

Trending Data

Plot Image

Trips for Cannon River (Minnesota), Welch (05355200)

DateStartEndDistanceConditionDischargeHeightFishingDetails
Click for details2022-07-29 Cannon Falls Miesville Ravine Park Total trip distance: 8.0 miles8.0 Good 380 3.82 None NoneNone Turner, SkipTurner, Skip NoneNone USGS Gauge Data:
Welch (05355200)
Discharge: 380
Height: 3.82
<b>USGS Gauge Data:</b></br />Welch (05355200)<br />Discharge: 380<br />Height: 3.82
Source: TurnerSource: Turner

A total of 1 rows are displayed.

Trip Summary for Cannon River (Minnesota), Welch (05355200)

Miles8
Trips1
People1
Dates1
Years1
Months1
Rows1
Sources1

Condition Descriptions

Fishing Conditions

Fish Species

Notes

Classic Trip List

The classic River Trips application is still available for use. It is updated with the new system using a data retrofit. It is no longer maintained. The original River Trips application is no longer updated (as of 1 Dec 2016) but can be checked for errors or for the condition of the data before it was converted to the new system.

Gauge Data Table

ObservationHeightDischargeMaximum
Discharge
Minimum
Discharge
Mean
Discharge
P05P10P20P25P50
(Median)
P75P80P90P95
2024-06-14 23:00 6.52 2790 14500 (2012) 66 (1931) 1270 80 142 224 259 611 1440 1540 2790 4310
2024-06-14 22:00 6.53 2800 8200 (2004) 63 (1926) 1090 85 143 221 238 655 1420 1590 2430 3970
2024-06-14 21:00 6.54 2820 8200 (2004) 63 (1926) 1090 85 143 221 238 655 1420 1590 2430 3970
2024-06-14 20:00 6.55 2830 8200 (2004) 63 (1926) 1090 85 143 221 238 655 1420 1590 2430 3970
2024-06-14 19:00 6.56 2840 8200 (2004) 63 (1926) 1090 85 143 221 238 655 1420 1590 2430 3970
2024-06-14 18:00 6.57 2850 8200 (2004) 63 (1926) 1090 85 143 221 238 655 1420 1590 2430 3970
2024-06-14 17:00 6.58 2870 8200 (2004) 63 (1926) 1090 85 143 221 238 655 1420 1590 2430 3970
2024-06-14 16:00 6.58 2870 8200 (2004) 63 (1926) 1090 85 143 221 238 655 1420 1590 2430 3970
2024-06-14 15:00 6.56 2840 8200 (2004) 63 (1926) 1090 85 143 221 238 655 1420 1590 2430 3970
2024-06-14 14:00 6.48 2740 8200 (2004) 63 (1926) 1090 85 143 221 238 655 1420 1590 2430 3970
2024-06-14 13:00 6.42 2660 8200 (2004) 63 (1926) 1090 85 143 221 238 655 1420 1590 2430 3970
2024-06-14 12:00 6.44 2690 8200 (2004) 63 (1926) 1090 85 143 221 238 655 1420 1590 2430 3970
2024-06-14 11:00 6.46 2710 8200 (2004) 63 (1926) 1090 85 143 221 238 655 1420 1590 2430 3970
2024-06-14 10:00 6.46 2710 8200 (2004) 63 (1926) 1090 85 143 221 238 655 1420 1590 2430 3970
2024-06-14 09:00 6.45 2710 8200 (2004) 63 (1926) 1090 85 143 221 238 655 1420 1590 2430 3970
2024-06-14 08:00 6.44 2700 8200 (2004) 63 (1926) 1090 85 143 221 238 655 1420 1590 2430 3970
2024-06-14 07:00 6.44 2690 8200 (2004) 63 (1926) 1090 85 143 221 238 655 1420 1590 2430 3970
2024-06-14 06:00 6.42 2670 8200 (2004) 63 (1926) 1090 85 143 221 238 655 1420 1590 2430 3970
2024-06-14 05:00 6.41 2660 8200 (2004) 63 (1926) 1090 85 143 221 238 655 1420 1590 2430 3970
2024-06-14 04:00 6.40 2640 8200 (2004) 63 (1926) 1090 85 143 221 238 655 1420 1590 2430 3970
2024-06-14 03:00 6.38 2630 8200 (2004) 63 (1926) 1090 85 143 221 238 655 1420 1590 2430 3970
2024-06-14 02:00 6.37 2600 8200 (2004) 63 (1926) 1090 85 143 221 238 655 1420 1590 2430 3970
2024-06-14 01:00 6.35 2590 8200 (2004) 63 (1926) 1090 85 143 221 238 655 1420 1590 2430 3970
2024-06-14 00:00 6.34 2570 8200 (2004) 63 (1926) 1090 85 143 221 238 655 1420 1590 2430 3970
2024-06-13 23:00 6.34 2570 8200 (2004) 63 (1926) 1090 85 143 221 238 655 1420 1590 2430 3970
2024-06-13 22:00 6.34 2570 9480 (2004) 62 (1926) 1050 116 169 210 243 619 1380 1620 2070 3510
2024-06-13 21:00 6.33 2560 9480 (2004) 62 (1926) 1050 116 169 210 243 619 1380 1620 2070 3510
2024-06-13 20:00 6.32 2550 9480 (2004) 62 (1926) 1050 116 169 210 243 619 1380 1620 2070 3510
2024-06-13 18:00 6.31 2540 9480 (2004) 62 (1926) 1050 116 169 210 243 619 1380 1620 2070 3510
2024-06-13 17:00 6.31 2540 9480 (2004) 62 (1926) 1050 116 169 210 243 619 1380 1620 2070 3510
2024-06-13 16:00 6.31 2540 9480 (2004) 62 (1926) 1050 116 169 210 243 619 1380 1620 2070 3510
2024-06-13 15:00 6.30 2530 9480 (2004) 62 (1926) 1050 116 169 210 243 619 1380 1620 2070 3510
2024-06-13 14:00 6.30 2520 9480 (2004) 62 (1926) 1050 116 169 210 243 619 1380 1620 2070 3510
2024-06-13 13:00 6.29 2510 9480 (2004) 62 (1926) 1050 116 169 210 243 619 1380 1620 2070 3510
2024-06-13 12:00 6.28 2490 9480 (2004) 62 (1926) 1050 116 169 210 243 619 1380 1620 2070 3510
2024-06-13 11:00 6.27 2490 9480 (2004) 62 (1926) 1050 116 169 210 243 619 1380 1620 2070 3510
2024-06-13 10:00 6.26 2480 9480 (2004) 62 (1926) 1050 116 169 210 243 619 1380 1620 2070 3510
2024-06-13 09:00 6.26 2480 9480 (2004) 62 (1926) 1050 116 169 210 243 619 1380 1620 2070 3510
2024-06-13 08:00 6.26 2480 9480 (2004) 62 (1926) 1050 116 169 210 243 619 1380 1620 2070 3510
2024-06-13 07:00 6.26 2480 9480 (2004) 62 (1926) 1050 116 169 210 243 619 1380 1620 2070 3510
2024-06-13 06:00 6.27 2480 9480 (2004) 62 (1926) 1050 116 169 210 243 619 1380 1620 2070 3510
2024-06-13 05:00 6.28 2490 9480 (2004) 62 (1926) 1050 116 169 210 243 619 1380 1620 2070 3510
2024-06-13 04:00 6.27 2490 9480 (2004) 62 (1926) 1050 116 169 210 243 619 1380 1620 2070 3510
2024-06-13 03:00 6.28 2490 9480 (2004) 62 (1926) 1050 116 169 210 243 619 1380 1620 2070 3510
2024-06-13 02:00 6.26 2480 9480 (2004) 62 (1926) 1050 116 169 210 243 619 1380 1620 2070 3510
2024-06-13 01:00 6.25 2460 9480 (2004) 62 (1926) 1050 116 169 210 243 619 1380 1620 2070 3510
2024-06-13 00:00 6.26 2470 9480 (2004) 62 (1926) 1050 116 169 210 243 619 1380 1620 2070 3510
2024-06-12 23:00 6.26 2480 9480 (2004) 62 (1926) 1050 116 169 210 243 619 1380 1620 2070 3510
2024-06-12 22:00 6.24 2450 9940 (2004) 78 (1926) 991 96 136 217 247 608 1450 1580 2110 2650
2024-06-12 21:00 6.16 2350 9940 (2004) 78 (1926) 991 96 136 217 247 608 1450 1580 2110 2650
2024-06-12 20:00 6.12 2300 9940 (2004) 78 (1926) 991 96 136 217 247 608 1450 1580 2110 2650
2024-06-12 19:00 6.13 2320 9940 (2004) 78 (1926) 991 96 136 217 247 608 1450 1580 2110 2650
2024-06-12 18:00 6.14 2330 9940 (2004) 78 (1926) 991 96 136 217 247 608 1450 1580 2110 2650
2024-06-12 17:00 6.13 2320 9940 (2004) 78 (1926) 991 96 136 217 247 608 1450 1580 2110 2650
2024-06-12 16:00 6.14 2330 9940 (2004) 78 (1926) 991 96 136 217 247 608 1450 1580 2110 2650
2024-06-12 15:00 6.14 2330 9940 (2004) 78 (1926) 991 96 136 217 247 608 1450 1580 2110 2650
2024-06-12 14:00 6.12 2310 9940 (2004) 78 (1926) 991 96 136 217 247 608 1450 1580 2110 2650
2024-06-12 13:00 6.11 2300 9940 (2004) 78 (1926) 991 96 136 217 247 608 1450 1580 2110 2650
2024-06-12 12:00 6.10 2290 9940 (2004) 78 (1926) 991 96 136 217 247 608 1450 1580 2110 2650
2024-06-12 11:00 6.11 2300 9940 (2004) 78 (1926) 991 96 136 217 247 608 1450 1580 2110 2650
2024-06-12 10:00 6.11 2300 9940 (2004) 78 (1926) 991 96 136 217 247 608 1450 1580 2110 2650
2024-06-12 09:00 6.11 2300 9940 (2004) 78 (1926) 991 96 136 217 247 608 1450 1580 2110 2650
2024-06-12 08:00 6.11 2300 9940 (2004) 78 (1926) 991 96 136 217 247 608 1450 1580 2110 2650
2024-06-12 06:00 6.10 2290 9940 (2004) 78 (1926) 991 96 136 217 247 608 1450 1580 2110 2650
2024-06-12 04:00 6.09 2270 9940 (2004) 78 (1926) 991 96 136 217 247 608 1450 1580 2110 2650
2024-06-12 02:00 6.07 2240 9940 (2004) 78 (1926) 991 96 136 217 247 608 1450 1580 2110 2650
2024-06-12 00:00 6.06 2230 9940 (2004) 78 (1926) 991 96 136 217 247 608 1450 1580 2110 2650
2024-06-11 23:00 6.06 2240 9940 (2004) 78 (1926) 991 96 136 217 247 608 1450 1580 2110 2650
2024-06-11 21:00 6.10 2290 9130 (2004) 59 (1934) 945 109 134 222 279 579 1480 1600 1930 2490
2024-06-11 20:00 6.12 2310 9130 (2004) 59 (1934) 945 109 134 222 279 579 1480 1600 1930 2490
2024-06-11 19:00 6.13 2320 9130 (2004) 59 (1934) 945 109 134 222 279 579 1480 1600 1930 2490
2024-06-11 17:00 6.16 2350 9130 (2004) 59 (1934) 945 109 134 222 279 579 1480 1600 1930 2490
2024-06-11 16:00 6.19 2390 9130 (2004) 59 (1934) 945 109 134 222 279 579 1480 1600 1930 2490
2024-06-11 15:00 6.25 2460 9130 (2004) 59 (1934) 945 109 134 222 279 579 1480 1600 1930 2490
2024-06-11 14:00 6.31 2530 9130 (2004) 59 (1934) 945 109 134 222 279 579 1480 1600 1930 2490
2024-06-11 13:00 6.32 2540 9130 (2004) 59 (1934) 945 109 134 222 279 579 1480 1600 1930 2490
2024-06-11 12:00 6.32 2550 9130 (2004) 59 (1934) 945 109 134 222 279 579 1480 1600 1930 2490
2024-06-11 11:00 6.33 2560 9130 (2004) 59 (1934) 945 109 134 222 279 579 1480 1600 1930 2490
2024-06-11 10:00 6.33 2560 9130 (2004) 59 (1934) 945 109 134 222 279 579 1480 1600 1930 2490
2024-06-11 09:00 6.34 2570 9130 (2004) 59 (1934) 945 109 134 222 279 579 1480 1600 1930 2490
2024-06-11 08:00 6.34 2570 9130 (2004) 59 (1934) 945 109 134 222 279 579 1480 1600 1930 2490
2024-06-11 07:00 6.33 2560 9130 (2004) 59 (1934) 945 109 134 222 279 579 1480 1600 1930 2490
2024-06-11 06:00 6.33 2560 9130 (2004) 59 (1934) 945 109 134 222 279 579 1480 1600 1930 2490
2024-06-11 05:00 6.33 2560 9130 (2004) 59 (1934) 945 109 134 222 279 579 1480 1600 1930 2490
2024-06-11 04:00 6.33 2560 9130 (2004) 59 (1934) 945 109 134 222 279 579 1480 1600 1930 2490
2024-06-11 03:00 6.32 2550 9130 (2004) 59 (1934) 945 109 134 222 279 579 1480 1600 1930 2490
2024-06-11 02:00 6.32 2540 9130 (2004) 59 (1934) 945 109 134 222 279 579 1480 1600 1930 2490
2024-06-11 01:00 6.30 2530 9130 (2004) 59 (1934) 945 109 134 222 279 579 1480 1600 1930 2490
2024-06-11 00:00 6.30 2520 9130 (2004) 59 (1934) 945 109 134 222 279 579 1480 1600 1930 2490
2024-06-10 23:00 6.30 2520 9130 (2004) 59 (1934) 945 109 134 222 279 579 1480 1600 1930 2490
2024-06-10 22:00 6.30 2530 5340 (2004) 89 (1956) 888 99 156 192 270 567 1360 1580 1960 2750
2024-06-10 21:00 6.30 2530 5340 (2004) 89 (1956) 888 99 156 192 270 567 1360 1580 1960 2750
2024-06-10 20:00 6.30 2530 5340 (2004) 89 (1956) 888 99 156 192 270 567 1360 1580 1960 2750
2024-06-10 19:00 6.30 2520 5340 (2004) 89 (1956) 888 99 156 192 270 567 1360 1580 1960 2750
2024-06-10 18:00 6.30 2520 5340 (2004) 89 (1956) 888 99 156 192 270 567 1360 1580 1960 2750
2024-06-10 17:00 6.30 2530 5340 (2004) 89 (1956) 888 99 156 192 270 567 1360 1580 1960 2750
2024-06-10 16:00 6.31 2540 5340 (2004) 89 (1956) 888 99 156 192 270 567 1360 1580 1960 2750
2024-06-10 15:00 6.33 2560 5340 (2004) 89 (1956) 888 99 156 192 270 567 1360 1580 1960 2750
2024-06-10 14:00 6.36 2600 5340 (2004) 89 (1956) 888 99 156 192 270 567 1360 1580 1960 2750
2024-06-10 13:00 6.44 2690 5340 (2004) 89 (1956) 888 99 156 192 270 567 1360 1580 1960 2750
2024-06-10 12:00 6.54 2740 5340 (2004) 89 (1956) 888 99 156 192 270 567 1360 1580 1960 2750
2024-06-10 09:00 6.58 2790 5340 (2004) 89 (1956) 888 99 156 192 270 567 1360 1580 1960 2750
2024-06-10 08:00 6.58 2800 5340 (2004) 89 (1956) 888 99 156 192 270 567 1360 1580 1960 2750
2024-06-10 07:00 6.58 2790 5340 (2004) 89 (1956) 888 99 156 192 270 567 1360 1580 1960 2750
2024-06-10 06:00 6.58 2790 5340 (2004) 89 (1956) 888 99 156 192 270 567 1360 1580 1960 2750
2024-06-10 05:00 6.58 2790 5340 (2004) 89 (1956) 888 99 156 192 270 567 1360 1580 1960 2750
2024-06-10 04:00 6.58 2790 5340 (2004) 89 (1956) 888 99 156 192 270 567 1360 1580 1960 2750
2024-06-10 03:00 6.58 2790 5340 (2004) 89 (1956) 888 99 156 192 270 567 1360 1580 1960 2750
2024-06-10 02:00 6.58 2790 5340 (2004) 89 (1956) 888 99 156 192 270 567 1360 1580 1960 2750
2024-06-10 01:00 6.57 2780 5340 (2004) 89 (1956) 888 99 156 192 270 567 1360 1580 1960 2750
2024-06-10 00:00 6.56 2770 5340 (2004) 89 (1956) 888 99 156 192 270 567 1360 1580 1960 2750
2024-06-09 23:00 6.56 2770 5340 (2004) 89 (1956) 888 99 156 192 270 567 1360 1580 1960 2750
2024-06-09 22:00 6.56 2770 4260 (2005) 88 (1935) 848 105 133 201 244 619 1270 1390 1910 2410
2024-06-09 21:00 6.56 2770 4260 (2005) 88 (1935) 848 105 133 201 244 619 1270 1390 1910 2410
2024-06-09 20:00 6.56 2770 4260 (2005) 88 (1935) 848 105 133 201 244 619 1270 1390 1910 2410
2024-06-09 19:00 6.57 2780 4260 (2005) 88 (1935) 848 105 133 201 244 619 1270 1390 1910 2410
2024-06-09 18:00 6.61 2830 4260 (2005) 88 (1935) 848 105 133 201 244 619 1270 1390 1910 2410
2024-06-09 17:00 6.70 2940 4260 (2005) 88 (1935) 848 105 133 201 244 619 1270 1390 1910 2410
2024-06-09 16:00 6.77 3040 4260 (2005) 88 (1935) 848 105 133 201 244 619 1270 1390 1910 2410
2024-06-09 15:00 6.80 3080 4260 (2005) 88 (1935) 848 105 133 201 244 619 1270 1390 1910 2410
2024-06-09 14:00 6.81 3100 4260 (2005) 88 (1935) 848 105 133 201 244 619 1270 1390 1910 2410
2024-06-09 13:00 6.82 3110 4260 (2005) 88 (1935) 848 105 133 201 244 619 1270 1390 1910 2410
2024-06-09 12:00 6.83 3120 4260 (2005) 88 (1935) 848 105 133 201 244 619 1270 1390 1910 2410
2024-06-09 11:00 6.84 3130 4260 (2005) 88 (1935) 848 105 133 201 244 619 1270 1390 1910 2410
2024-06-09 10:00 6.85 3150 4260 (2005) 88 (1935) 848 105 133 201 244 619 1270 1390 1910 2410
2024-06-09 09:00 6.85 3150 4260 (2005) 88 (1935) 848 105 133 201 244 619 1270 1390 1910 2410
2024-06-09 08:00 6.84 3140 4260 (2005) 88 (1935) 848 105 133 201 244 619 1270 1390 1910 2410
2024-06-09 07:00 6.84 3130 4260 (2005) 88 (1935) 848 105 133 201 244 619 1270 1390 1910 2410
2024-06-09 06:00 6.83 3120 4260 (2005) 88 (1935) 848 105 133 201 244 619 1270 1390 1910 2410
2024-06-09 05:00 6.82 3110 4260 (2005) 88 (1935) 848 105 133 201 244 619 1270 1390 1910 2410
2024-06-09 04:00 6.81 3090 4260 (2005) 88 (1935) 848 105 133 201 244 619 1270 1390 1910 2410
2024-06-09 03:00 6.80 3080 4260 (2005) 88 (1935) 848 105 133 201 244 619 1270 1390 1910 2410
2024-06-09 02:00 6.81 3090 4260 (2005) 88 (1935) 848 105 133 201 244 619 1270 1390 1910 2410
2024-06-09 01:00 6.86 3150 4260 (2005) 88 (1935) 848 105 133 201 244 619 1270 1390 1910 2410
2024-06-09 00:00 6.94 3270 4260 (2005) 88 (1935) 848 105 133 201 244 619 1270 1390 1910 2410
2024-06-08 23:00 6.97 3310 4260 (2005) 88 (1935) 848 105 133 201 244 619 1270 1390 1910 2410
2024-06-08 22:00 6.97 3310 4290 (2000) 77 (1931) 864 131 160 214 236 668 1270 1350 2020 2570
2024-06-08 21:00 6.97 3310 4290 (2000) 77 (1931) 864 131 160 214 236 668 1270 1350 2020 2570
2024-06-08 20:00 6.98 3320 4290 (2000) 77 (1931) 864 131 160 214 236 668 1270 1350 2020 2570
2024-06-08 19:00 6.98 3320 4290 (2000) 77 (1931) 864 131 160 214 236 668 1270 1350 2020 2570
2024-06-08 18:00 7.00 3350 4290 (2000) 77 (1931) 864 131 160 214 236 668 1270 1350 2020 2570
2024-06-08 17:00 7.06 3430 4290 (2000) 77 (1931) 864 131 160 214 236 668 1270 1350 2020 2570
2024-06-08 16:00 7.12 3520 4290 (2000) 77 (1931) 864 131 160 214 236 668 1270 1350 2020 2570
2024-06-08 15:00 7.14 3550 4290 (2000) 77 (1931) 864 131 160 214 236 668 1270 1350 2020 2570
2024-06-08 14:00 7.16 3570 4290 (2000) 77 (1931) 864 131 160 214 236 668 1270 1350 2020 2570
2024-06-08 13:00 7.17 3590 4290 (2000) 77 (1931) 864 131 160 214 236 668 1270 1350 2020 2570
2024-06-08 12:00 7.18 3610 4290 (2000) 77 (1931) 864 131 160 214 236 668 1270 1350 2020 2570
2024-06-08 11:00 7.22 3660 4290 (2000) 77 (1931) 864 131 160 214 236 668 1270 1350 2020 2570
2024-06-08 10:00 7.32 3800 4290 (2000) 77 (1931) 864 131 160 214 236 668 1270 1350 2020 2570
2024-06-08 09:00 7.44 3970 4290 (2000) 77 (1931) 864 131 160 214 236 668 1270 1350 2020 2570
2024-06-08 08:00 7.46 4010 4290 (2000) 77 (1931) 864 131 160 214 236 668 1270 1350 2020 2570
2024-06-08 07:00 7.48 4030 4290 (2000) 77 (1931) 864 131 160 214 236 668 1270 1350 2020 2570
2024-06-08 06:00 7.49 4050 4290 (2000) 77 (1931) 864 131 160 214 236 668 1270 1350 2020 2570
2024-06-08 05:00 7.50 4060 4290 (2000) 77 (1931) 864 131 160 214 236 668 1270 1350 2020 2570
2024-06-08 04:00 7.50 4070 4290 (2000) 77 (1931) 864 131 160 214 236 668 1270 1350 2020 2570
2024-06-08 03:00 7.51 4080 4290 (2000) 77 (1931) 864 131 160 214 236 668 1270 1350 2020 2570
2024-06-08 02:00 7.52 4080 4290 (2000) 77 (1931) 864 131 160 214 236 668 1270 1350 2020 2570
2024-06-08 01:00 7.52 4090 4290 (2000) 77 (1931) 864 131 160 214 236 668 1270 1350 2020 2570
2024-06-08 00:00 7.52 4100 4290 (2000) 77 (1931) 864 131 160 214 236 668 1270 1350 2020 2570
2024-06-07 23:00 7.53 4110 4290 (2000) 77 (1931) 864 131 160 214 236 668 1270 1350 2020 2570

A total of 160 rows are displayed for years 1910 through 2023.